Mt Bomar Mars — 9HCM9 — position and weather

sailwx.info

Track history (hours):
 
Tides and Currents Weather Stations Pressure Air Temp Water Temp Dewpoint Dewpoint Depression Visibility Wind Speed Wind Dir Waves Ship Positions

Mt Bomar Mars

Last reported at 2018-Jun-24 07:00 UTC. Time now 2018-Jun-24 06:57 UTC.
Position N 39°08' W 009°57'.

Length 107 m; draft 6.6 m.

Type: Ship (hazmat cat B). MMSI: 256784000.

Date/timePositionNaut miles runAvg speedWind from/ knotsBaromVisibWave heightAir tempDewpointWater temp
2018-Jun-24 07:00N 39°08' W 009°57'612.5
2018-Jun-24 06:30N 39°01' W 009°57'612.6
2018-Jun-24 06:00N 38°55' W 009°57'612.4
2018-Jun-24 05:30N 38°49' W 009°57'712.1
2018-Jun-24 04:58N 38°42' W 009°56'511.8
2018-Jun-24 04:30N 38°37' W 009°55'611.6
2018-Jun-24 04:00N 38°31' W 009°53'2511.8
2018-Jun-24 01:53N 38°07' W 009°45'612.4
2018-Jun-24 01:24N 38°01' W 009°43'47010.4
2018-Jun-22 04:02N 36°33' W 000°03'1012.2
2018-Jun-22 03:11N 36°35' E 000°10'212.4
2018-Jun-22 02:59N 36°36' E 000°13'612.4
2018-Jun-22 02:30N 36°38' E 000°20'3311.8
2018-Jun-21 23:41N 36°47' E 000°60'211.8
2018-Jun-21 23:30N 36°48' E 001°02'2812.0
2018-Jun-21 21:08N 36°55' E 001°36'212.1
2018-Jun-21 21:00N 36°55' E 001°38'612.0
2018-Jun-21 20:31N 36°56' E 001°46'612.0
2018-Jun-21 20:00N 36°57' E 001°53'1112.2
2018-Jun-21 19:04N 36°60' E 002°07'112.3
2018-Jun-21 19:00N 36°60' E 002°08'612.5
2018-Jun-21 18:31N 37°01' E 002°16'612.6
2018-Jun-21 18:00N 37°02' E 002°24'612.8
2018-Jun-21 17:30N 37°03' E 002°32'713.1
2018-Jun-21 17:00N 37°04' E 002°40'613.3
2018-Jun-21 16:31N 37°06' E 002°48'913.6
2018-Jun-21 15:52N 37°07' E 002°58'513.8
2018-Jun-21 15:29N 37°08' E 003°05'714.1
2018-Jun-21 14:59N 37°09' E 003°14'714.2
2018-Jun-21 14:30N 37°10' E 003°22'714.1
2018-Jun-21 13:59N 37°12' E 003°31'49512.0
2018-Jun-19 20:36N 36°39' E 013°49'112.4
2018-Jun-19 20:29N 36°39' E 013°51'612.4
2018-Jun-19 20:00N 36°37' E 013°58'  
Track history (hours):
 
Tides and Currents Weather Stations Pressure Air Temp Water Temp Dewpoint Dewpoint Depression Visibility Wind Speed Wind Dir Waves Ship Positions

Mt Bomar Mars

Last reported at 2018-Jun-24 07:00 UTC. Time now 2018-Jun-24 06:57 UTC.
Position N 39°08' W 009°57'.

Length 107 m; draft 6.6 m.

Type: Ship (hazmat cat B). MMSI: 256784000.

Date/timePositionNaut miles runAvg speedWind from/ knotsBaromVisibWave heightAir tempDewpointWater temp
2018-Jun-24 07:00N 39°08' W 009°57'612.5
2018-Jun-24 06:30N 39°01' W 009°57'612.6
2018-Jun-24 06:00N 38°55' W 009°57'612.4
2018-Jun-24 05:30N 38°49' W 009°57'712.1
2018-Jun-24 04:58N 38°42' W 009°56'511.8
2018-Jun-24 04:30N 38°37' W 009°55'611.6
2018-Jun-24 04:00N 38°31' W 009°53'2511.8
2018-Jun-24 01:53N 38°07' W 009°45'612.4
2018-Jun-24 01:24N 38°01' W 009°43'47010.4
2018-Jun-22 04:02N 36°33' W 000°03'1012.2
2018-Jun-22 03:11N 36°35' E 000°10'212.4
2018-Jun-22 02:59N 36°36' E 000°13'612.4
2018-Jun-22 02:30N 36°38' E 000°20'3311.8
2018-Jun-21 23:41N 36°47' E 000°60'211.8
2018-Jun-21 23:30N 36°48' E 001°02'2812.0
2018-Jun-21 21:08N 36°55' E 001°36'212.1
2018-Jun-21 21:00N 36°55' E 001°38'612.0
2018-Jun-21 20:31N 36°56' E 001°46'612.0
2018-Jun-21 20:00N 36°57' E 001°53'1112.2
2018-Jun-21 19:04N 36°60' E 002°07'112.3
2018-Jun-21 19:00N 36°60' E 002°08'612.5
2018-Jun-21 18:31N 37°01' E 002°16'612.6
2018-Jun-21 18:00N 37°02' E 002°24'612.8
2018-Jun-21 17:30N 37°03' E 002°32'713.1
2018-Jun-21 17:00N 37°04' E 002°40'613.3
2018-Jun-21 16:31N 37°06' E 002°48'913.6
2018-Jun-21 15:52N 37°07' E 002°58'513.8
2018-Jun-21 15:29N 37°08' E 003°05'714.1
2018-Jun-21 14:59N 37°09' E 003°14'714.2
2018-Jun-21 14:30N 37°10' E 003°22'714.1
2018-Jun-21 13:59N 37°12' E 003°31'49512.0
2018-Jun-19 20:36N 36°39' E 013°49'112.4
2018-Jun-19 20:29N 36°39' E 013°51'612.4
2018-Jun-19 20:00N 36°37' E 013°58'  

Dump ship's entire track history